createdAt,value
2018-12-11T00:02:07.991Z,2.57
2018-12-11T00:04:39.067Z,2.83
2018-12-11T00:07:12.379Z,2.70
2018-12-11T00:09:43.323Z,3.50
2018-12-11T00:12:14.797Z,3.50
2018-12-11T00:14:45.781Z,3.00
2018-12-11T00:17:16.691Z,3.53
2018-12-11T00:19:50.224Z,3.07
2018-12-11T00:22:21.295Z,2.90
2018-12-11T00:24:52.262Z,2.87
2018-12-11T00:27:23.228Z,2.90
2018-12-11T00:29:54.177Z,3.10
2018-12-11T00:32:25.175Z,3.53
2018-12-11T00:34:56.104Z,3.20
2018-12-11T00:37:26.991Z,3.30
2018-12-11T00:39:58.324Z,2.70
2018-12-11T00:42:31.863Z,2.97
2018-12-11T00:45:06.647Z,2.83
2018-12-11T00:47:37.759Z,3.27
2018-12-11T00:50:08.919Z,3.03
2018-12-11T00:52:39.764Z,3.43
2018-12-11T00:55:11.035Z,4.07
2018-12-11T00:57:42.171Z,3.40
2018-12-11T01:00:13.559Z,3.23
2018-12-11T01:02:45.515Z,3.70
2018-12-11T01:05:15.354Z,3.60
2018-12-11T01:07:46.291Z,3.93
2018-12-11T01:10:17.631Z,3.73
2018-12-11T01:12:48.611Z,3.50
2018-12-11T01:15:22.481Z,4.73
2018-12-11T01:17:54.060Z,3.40
2018-12-11T01:20:25.163Z,3.53
2018-12-11T01:22:58.543Z,3.33
2018-12-11T01:25:30.291Z,3.43
2018-12-11T01:28:01.582Z,3.00
2018-12-11T01:30:32.567Z,3.90
2018-12-11T01:33:03.583Z,3.70
2018-12-11T01:38:03.630Z,3.07
2018-12-11T01:40:34.491Z,3.33
2018-12-11T01:43:05.736Z,3.27
2018-12-11T01:45:36.827Z,3.40
2018-12-11T01:48:07.769Z,3.37
2018-12-11T01:50:38.792Z,3.60
2018-12-11T01:53:09.867Z,2.93
2018-12-11T01:55:40.778Z,3.30
2018-12-11T01:58:12.081Z,2.73
2018-12-11T02:00:45.611Z,3.17
2018-12-11T02:03:16.987Z,2.70
2018-12-11T02:05:47.953Z,2.73
2018-12-11T02:08:18.883Z,2.50
2018-12-11T02:10:49.971Z,2.90
2018-12-11T02:13:21.199Z,3.23
2018-12-11T02:15:55.435Z,2.83
2018-12-11T02:18:26.964Z,2.83
2018-12-11T02:20:58.176Z,2.60
2018-12-11T02:26:25.859Z,2.93
2018-12-11T02:28:56.829Z,3.10
2018-12-11T02:31:30.591Z,3.00
2018-12-11T02:34:02.127Z,2.70
2018-12-11T02:36:33.145Z,3.60
2018-12-11T02:39:06.766Z,3.00
2018-12-11T02:41:38.247Z,3.20
2018-12-11T02:44:09.184Z,2.93
2018-12-11T02:46:40.204Z,3.30
2018-12-11T02:49:13.798Z,3.00
2018-12-11T02:51:47.811Z,3.20
2018-12-11T02:54:21.847Z,3.77
2018-12-11T02:56:53.185Z,3.77
2018-12-11T02:59:24.167Z,4.30
2018-12-11T03:01:55.328Z,3.67
2018-12-11T03:04:28.734Z,3.47
2018-12-11T03:07:00.010Z,3.70
2018-12-11T03:09:33.361Z,4.70
2018-12-11T03:12:07.550Z,4.00
2018-12-11T03:14:39.025Z,3.67
2018-12-11T03:17:09.904Z,3.70
2018-12-11T03:19:41.059Z,3.47
2018-12-11T03:22:11.829Z,3.67
2018-12-11T03:24:42.809Z,3.03
2018-12-11T03:27:14.033Z,3.47
2018-12-11T03:29:45.344Z,3.77
2018-12-11T03:32:16.669Z,2.50
2018-12-11T03:34:48.125Z,2.60
2018-12-11T03:37:19.057Z,2.50
2018-12-11T03:39:50.109Z,2.23
2018-12-11T03:42:20.856Z,2.23
2018-12-11T03:44:51.987Z,2.53
2018-12-11T03:47:23.082Z,2.80
2018-12-11T03:49:54.105Z,2.13
2018-12-11T03:52:25.208Z,2.53
2018-12-11T03:54:56.060Z,2.50
2018-12-11T03:57:27.120Z,2.30
2018-12-11T03:59:58.895Z,2.03
2018-12-11T04:02:30.644Z,2.40
2018-12-11T04:05:01.666Z,2.37
2018-12-11T04:07:35.363Z,2.83
2018-12-11T04:10:08.297Z,3.30
2018-12-11T04:12:39.138Z,2.37
2018-12-11T04:15:09.321Z,2.67
2018-12-11T04:17:40.372Z,2.10
2018-12-11T04:20:11.451Z,2.77
2018-12-11T04:22:45.208Z,2.23
2018-12-11T04:25:16.743Z,2.10
2018-12-11T04:27:47.690Z,2.67
2018-12-11T04:30:21.087Z,2.20
2018-12-11T04:32:52.315Z,2.30
2018-12-11T04:35:25.794Z,3.10
2018-12-11T04:37:57.374Z,2.77
2018-12-11T04:40:30.940Z,2.90
2018-12-11T04:43:02.379Z,2.47
2018-12-11T04:45:34.210Z,2.77
2018-12-11T04:48:07.576Z,3.20
2018-12-11T04:50:39.054Z,3.17
2018-12-11T04:56:20.100Z,3.07
2018-12-11T04:58:50.991Z,2.73
2018-12-11T05:01:22.201Z,2.97
2018-12-11T05:03:53.318Z,3.10
2018-12-11T05:06:24.483Z,4.10
2018-12-11T05:08:55.374Z,3.67
2018-12-11T05:11:26.376Z,3.47
2018-12-11T05:13:57.563Z,2.60
2018-12-11T05:16:28.475Z,3.70
2018-12-11T05:19:04.124Z,3.43
2018-12-11T05:21:35.883Z,3.87
2018-12-11T05:24:06.888Z,3.30
2018-12-11T05:26:37.869Z,3.40
2018-12-11T05:29:11.466Z,3.90
2018-12-11T05:31:42.835Z,3.00
2018-12-11T05:34:13.940Z,3.37
2018-12-11T05:36:47.445Z,3.80
2018-12-11T05:39:19.008Z,3.30
2018-12-11T05:41:50.197Z,4.00
2018-12-11T05:44:20.984Z,3.90
2018-12-11T05:46:52.478Z,3.43
2018-12-11T05:49:23.374Z,3.67
2018-12-11T05:51:54.594Z,3.67
2018-12-11T05:54:25.751Z,3.80
2018-12-11T05:56:56.996Z,4.60
2018-12-11T05:59:28.722Z,3.40
2018-12-11T06:01:59.771Z,3.97
2018-12-11T06:04:33.154Z,3.60
2018-12-11T06:07:04.803Z,3.43
2018-12-11T06:09:35.859Z,4.10
2018-12-11T06:12:06.876Z,3.70
2018-12-11T06:14:37.739Z,4.33
2018-12-11T06:17:09.047Z,4.50
2018-12-11T06:19:41.009Z,3.90
2018-12-11T06:22:12.132Z,3.87
2018-12-11T06:24:43.287Z,4.77
2018-12-11T06:27:14.966Z,4.23
2018-12-11T06:29:45.917Z,4.63
2018-12-11T06:32:17.090Z,5.13
2018-12-11T06:34:48.282Z,5.37
2018-12-11T06:37:22.615Z,4.27
2018-12-11T06:39:56.463Z,3.77
2018-12-11T06:42:28.419Z,4.47
2018-12-11T06:45:00.451Z,4.10
2018-12-11T06:47:31.991Z,4.73
2018-12-11T06:50:04.392Z,4.77
2018-12-11T06:52:35.679Z,5.03
2018-12-11T06:55:07.135Z,4.80
2018-12-11T06:57:38.666Z,5.20
2018-12-11T07:00:10.243Z,4.37
2018-12-11T07:02:41.438Z,4.60
2018-12-11T07:05:12.938Z,5.00
2018-12-11T07:07:43.983Z,3.97
2018-12-11T07:10:17.656Z,4.70
2018-12-11T07:12:48.660Z,4.27
2018-12-11T07:15:19.812Z,4.30
2018-12-11T07:17:50.877Z,4.47
2018-12-11T07:20:21.720Z,4.20
2018-12-11T07:22:55.526Z,3.03
2018-12-11T07:25:29.500Z,3.57
2018-12-11T07:28:00.823Z,4.10
2018-12-11T07:30:32.099Z,4.93
2018-12-11T07:33:03.641Z,4.40
2018-12-11T07:35:35.319Z,5.23
2018-12-11T07:38:06.132Z,5.37
2018-12-11T07:40:37.422Z,4.50
2018-12-11T07:43:09.119Z,4.27
2018-12-11T07:45:40.384Z,4.93
2018-12-11T07:48:11.447Z,5.70
2018-12-11T07:50:45.128Z,4.93
2018-12-11T07:53:16.383Z,4.30
2018-12-11T07:55:47.420Z,5.30
2018-12-11T07:58:18.623Z,4.87
2018-12-11T08:00:52.030Z,5.93
2018-12-11T08:03:26.134Z,6.50
2018-12-11T08:06:00.295Z,4.97
2018-12-11T08:08:31.593Z,5.30
2018-12-11T08:11:02.557Z,4.60
2018-12-11T08:13:36.096Z,4.93
2018-12-11T08:16:07.388Z,4.43
2018-12-11T08:18:40.864Z,5.17
2018-12-11T08:21:10.553Z,4.53
2018-12-11T08:23:41.379Z,4.37
2018-12-11T08:26:12.439Z,5.13
2018-12-11T08:28:43.540Z,4.30
2018-12-11T08:31:14.808Z,4.90
2018-12-11T08:33:45.580Z,5.30
2018-12-11T08:36:16.795Z,5.60
2018-12-11T08:38:47.942Z,5.50
2018-12-11T08:41:21.352Z,5.03
2018-12-11T08:43:50.895Z,4.67
2018-12-11T08:46:22.207Z,4.17
2018-12-11T08:48:56.409Z,4.13
2018-12-11T08:51:30.428Z,4.80
2018-12-11T08:54:01.899Z,5.03
2018-12-11T08:56:33.159Z,4.20
2018-12-11T08:59:06.728Z,4.30
2018-12-11T09:01:37.013Z,3.80
2018-12-11T09:04:08.099Z,4.00
2018-12-11T09:06:39.199Z,4.63
2018-12-11T09:09:09.935Z,4.27
2018-12-11T09:11:40.689Z,4.77
2018-12-11T09:14:11.879Z,5.00
2018-12-11T09:16:42.811Z,4.93
2018-12-11T09:22:17.574Z,4.60
2018-12-11T09:24:48.819Z,4.00
2018-12-11T09:27:22.349Z,4.00
2018-12-11T09:29:53.703Z,3.57
2018-12-11T09:32:24.748Z,4.07
2018-12-11T09:34:55.815Z,4.00
2018-12-11T09:37:29.375Z,4.67
2018-12-11T09:40:00.841Z,3.87
2018-12-11T09:45:05.241Z,4.20
2018-12-11T09:50:40.663Z,3.80
2018-12-11T09:53:11.814Z,4.33
2018-12-11T09:55:43.045Z,3.50
2018-12-11T09:58:14.087Z,4.80
2018-12-11T10:00:45.012Z,4.93
2018-12-11T10:03:16.323Z,3.97
2018-12-11T10:05:49.645Z,3.97
2018-12-11T10:08:21.119Z,3.57
2018-12-11T10:10:52.400Z,3.30
2018-12-11T10:13:23.395Z,3.40
2018-12-11T10:15:54.709Z,3.90
2018-12-11T10:18:25.657Z,2.90
2018-12-11T10:20:56.867Z,3.00
2018-12-11T10:23:31.841Z,3.57
2018-12-11T10:26:01.039Z,3.60
2018-12-11T10:28:32.095Z,3.70
2018-12-11T10:31:03.294Z,4.07
2018-12-11T10:33:34.283Z,4.03
2018-12-11T10:36:07.797Z,3.53
2018-12-11T10:38:39.182Z,3.67
2018-12-11T10:41:10.276Z,3.37
2018-12-11T10:43:41.103Z,3.50
2018-12-11T10:46:12.283Z,3.97
2018-12-11T10:48:44.069Z,3.50
2018-12-11T10:51:15.159Z,2.70
2018-12-11T10:53:48.622Z,2.93
2018-12-11T10:56:19.984Z,3.27
2018-12-11T10:58:53.294Z,3.10
2018-12-11T11:01:26.855Z,3.37
2018-12-11T11:03:58.308Z,3.37
2018-12-11T11:06:31.860Z,4.13
2018-12-11T11:09:05.822Z,2.90
2018-12-11T11:11:37.071Z,4.13
2018-12-11T11:14:10.474Z,3.60
2018-12-11T11:16:41.987Z,3.00
2018-12-11T11:19:13.000Z,3.03
2018-12-11T11:21:44.276Z,3.43
2018-12-11T11:24:15.120Z,4.10
2018-12-11T11:26:46.127Z,3.50
2018-12-11T11:29:17.323Z,3.53
2018-12-11T11:34:52.486Z,3.07
2018-12-11T11:37:23.382Z,2.63
2018-12-11T11:39:54.611Z,3.37
2018-12-11T11:42:25.852Z,2.63
2018-12-11T11:44:56.998Z,2.63
2018-12-11T11:47:27.949Z,2.87
2018-12-11T11:49:58.956Z,2.63
2018-12-11T11:52:29.763Z,2.20
2018-12-11T11:55:00.967Z,2.50
2018-12-11T11:57:32.359Z,2.23
2018-12-11T12:00:07.069Z,1.90
2018-12-11T12:02:38.647Z,2.03
2018-12-11T12:05:09.643Z,2.50
2018-12-11T12:07:40.579Z,2.10
2018-12-11T12:10:13.034Z,1.83
2018-12-11T12:12:44.304Z,2.23
2018-12-11T12:15:16.003Z,2.07
2018-12-11T12:17:47.039Z,2.53
2018-12-11T12:20:18.626Z,1.80
2018-12-11T12:22:50.212Z,2.00
2018-12-11T12:25:19.689Z,1.83
2018-12-11T12:27:50.600Z,1.80
2018-12-11T12:30:23.387Z,2.30
2018-12-11T12:32:52.455Z,1.70
2018-12-11T12:35:23.606Z,1.87
2018-12-11T12:37:55.181Z,1.70
2018-12-11T12:40:26.462Z,1.73
2018-12-11T12:42:57.683Z,2.30
2018-12-11T12:48:01.186Z,1.70
2018-12-11T12:50:32.175Z,2.20
2018-12-11T12:53:03.203Z,2.20
2018-12-11T12:55:33.945Z,1.70
2018-12-11T12:58:05.763Z,2.20
2018-12-11T13:00:37.031Z,1.70
2018-12-11T13:03:08.201Z,3.30
2018-12-11T13:05:39.967Z,1.97
2018-12-11T13:08:11.680Z,1.83
2018-12-11T13:10:43.023Z,2.20
2018-12-11T13:13:14.671Z,2.40
2018-12-11T13:15:48.223Z,3.57
2018-12-11T13:18:19.807Z,2.60
2018-12-11T13:20:50.732Z,2.50
2018-12-11T13:23:21.692Z,2.10
2018-12-11T13:25:52.819Z,2.50
2018-12-11T13:28:24.451Z,2.13
2018-12-11T13:30:55.849Z,2.83
2018-12-11T13:33:27.572Z,2.63
2018-12-11T13:35:58.852Z,2.27
2018-12-11T13:38:29.736Z,2.77
2018-12-11T13:41:04.259Z,3.03
2018-12-11T13:43:35.347Z,2.80
2018-12-11T13:46:06.541Z,3.27
2018-12-11T13:51:09.767Z,2.50
2018-12-11T13:53:41.243Z,2.67
2018-12-11T13:56:12.324Z,3.13
2018-12-11T13:58:43.131Z,3.10
2018-12-11T14:01:14.095Z,3.00
2018-12-11T14:03:45.551Z,3.47
2018-12-11T14:06:17.267Z,2.40
2018-12-11T14:08:52.293Z,2.00
2018-12-11T14:11:23.301Z,3.00
2018-12-11T14:13:54.264Z,2.87
2018-12-11T14:16:25.520Z,2.70
2018-12-11T14:18:56.419Z,2.60
2018-12-11T14:21:27.688Z,2.80
2018-12-11T14:23:58.560Z,2.60
2018-12-11T14:26:30.088Z,3.20
2018-12-11T14:29:01.788Z,2.63
2018-12-11T14:31:32.815Z,2.63
2018-12-11T14:34:06.811Z,2.60
2018-12-11T14:36:41.478Z,2.87
2018-12-11T14:39:15.247Z,2.43
2018-12-11T14:41:46.950Z,2.80
2018-12-11T14:44:20.580Z,3.70
2018-12-11T14:46:51.928Z,3.10
2018-12-11T14:49:23.927Z,3.03
2018-12-11T14:51:57.504Z,3.63
2018-12-11T14:54:28.935Z,3.40
2018-12-11T14:57:00.662Z,3.87
2018-12-11T14:59:31.607Z,3.87
2018-12-11T15:02:05.402Z,3.57
2018-12-11T15:04:36.460Z,3.90
2018-12-11T15:07:07.516Z,4.10
2018-12-11T15:09:40.248Z,3.93
2018-12-11T15:12:12.203Z,3.20
2018-12-11T15:14:43.143Z,3.43
2018-12-11T15:17:14.150Z,3.47
2018-12-11T15:19:44.959Z,3.67
2018-12-11T15:22:16.199Z,3.57
2018-12-11T15:24:49.496Z,4.03
2018-12-11T15:27:21.071Z,5.23
2018-12-11T15:29:52.100Z,3.67
2018-12-11T15:32:22.985Z,3.97
2018-12-11T15:34:54.083Z,3.80
2018-12-11T15:37:24.903Z,3.60
2018-12-11T15:39:55.991Z,3.90
2018-12-11T15:42:26.959Z,2.53
2018-12-11T15:45:00.609Z,2.97
2018-12-11T15:47:31.971Z,2.67
2018-12-11T15:50:05.147Z,4.00
2018-12-11T15:52:37.191Z,3.20
2018-12-11T15:55:09.437Z,3.40
2018-12-11T15:57:40.407Z,3.93
2018-12-11T16:00:11.943Z,3.90
2018-12-11T16:02:43.594Z,4.03
2018-12-11T16:05:17.195Z,4.20
2018-12-11T16:07:51.227Z,3.60
2018-12-11T16:10:20.612Z,4.13
2018-12-11T16:12:53.900Z,4.60
2018-12-11T16:15:25.477Z,4.43
2018-12-11T16:17:56.393Z,4.40
2018-12-11T16:20:27.271Z,4.67
2018-12-11T16:23:01.164Z,4.73
2018-12-11T16:25:35.675Z,5.13
2018-12-11T16:28:06.546Z,5.23
2018-12-11T16:30:39.923Z,5.77
2018-12-11T16:33:13.704Z,4.90
2018-12-11T16:35:46.710Z,4.37
2018-12-11T16:38:18.171Z,4.93
2018-12-11T16:40:51.529Z,4.23
2018-12-11T16:43:23.031Z,4.70
2018-12-11T16:45:54.035Z,3.87
2018-12-11T16:48:25.049Z,4.07
2018-12-11T16:50:56.074Z,4.70
2018-12-11T16:53:26.975Z,4.60
2018-12-11T16:55:57.729Z,3.77
2018-12-11T16:58:26.933Z,3.77
2018-12-11T17:01:00.447Z,5.00
2018-12-11T17:03:31.939Z,4.77
2018-12-11T17:06:03.010Z,4.87
2018-12-11T17:08:36.475Z,4.53
2018-12-11T17:11:08.193Z,4.50
2018-12-11T17:13:38.970Z,5.07
2018-12-11T17:16:12.647Z,5.10
2018-12-11T17:18:43.967Z,5.90
2018-12-11T17:21:15.079Z,6.33
2018-12-11T17:23:46.931Z,6.50
2018-12-11T17:26:20.525Z,6.23
2018-12-11T17:28:51.876Z,5.03
2018-12-11T17:31:21.059Z,6.13
2018-12-11T17:33:52.119Z,5.27
2018-12-11T17:36:23.221Z,6.10
2018-12-11T17:38:57.027Z,5.00
2018-12-11T17:41:26.281Z,5.37
2018-12-11T17:43:55.529Z,5.53
2018-12-11T17:46:29.043Z,5.57
2018-12-11T17:49:00.426Z,6.23
2018-12-11T17:51:33.943Z,5.47
2018-12-11T17:54:05.351Z,5.87
2018-12-11T17:56:36.447Z,4.00
2018-12-11T17:59:07.405Z,4.90
2018-12-11T18:01:39.639Z,4.13
2018-12-11T18:04:13.056Z,6.60
2018-12-11T18:06:46.867Z,5.43
2018-12-11T18:09:18.395Z,5.50
2018-12-11T18:11:49.533Z,5.37
2018-12-11T18:14:21.271Z,4.90
2018-12-11T18:16:52.135Z,7.03
2018-12-11T18:19:23.227Z,3.83
2018-12-11T18:21:54.185Z,6.20
2018-12-11T18:24:25.004Z,5.30
2018-12-11T18:26:56.657Z,7.50
2018-12-11T18:29:28.751Z,6.17
2018-12-11T18:32:00.343Z,5.50
2018-12-11T18:34:33.378Z,6.63
2018-12-11T18:37:04.811Z,6.73
2018-12-11T18:39:36.210Z,7.40
2018-12-11T18:42:10.380Z,6.50
2018-12-11T18:44:41.437Z,7.20
2018-12-11T18:47:13.183Z,5.73
2018-12-11T18:49:44.824Z,7.23
2018-12-11T18:57:19.303Z,7.27
2018-12-11T18:59:52.776Z,7.63
2018-12-11T19:02:24.295Z,6.33
2018-12-11T19:04:55.427Z,7.53
2018-12-11T19:07:26.583Z,7.00
2018-12-11T19:09:57.724Z,6.57
2018-12-11T19:12:28.663Z,6.60
2018-12-11T19:15:04.747Z,7.17
2018-12-11T19:17:32.789Z,6.53
2018-12-11T19:20:04.854Z,8.07
2018-12-11T19:22:35.941Z,13.77
2018-12-11T19:25:12.627Z,13.07
2018-12-11T19:27:44.383Z,11.77
2018-12-11T19:30:16.304Z,8.57
2018-12-11T19:32:47.918Z,7.83
2018-12-11T19:35:18.716Z,7.37
2018-12-11T19:37:49.897Z,7.53
2018-12-11T19:40:20.845Z,8.23
2018-12-11T19:42:51.790Z,8.63
2018-12-11T19:45:22.955Z,7.53
2018-12-11T19:47:52.743Z,9.03
2018-12-11T19:50:26.298Z,8.03
2018-12-11T19:52:57.583Z,6.47
2018-12-11T19:55:28.527Z,7.73
2018-12-11T19:57:59.942Z,7.07
2018-12-11T20:00:31.263Z,6.87
2018-12-11T20:03:02.183Z,7.40
2018-12-11T20:05:33.275Z,7.80
2018-12-11T20:08:04.259Z,8.17
2018-12-11T20:10:35.245Z,7.77
2018-12-11T20:13:06.179Z,8.17
2018-12-11T20:15:37.272Z,9.50
2018-12-11T20:18:12.887Z,9.90
2018-12-11T20:20:41.652Z,8.77
2018-12-11T20:23:13.292Z,8.80
2018-12-11T20:25:44.357Z,11.03
2018-12-11T20:28:16.025Z,9.23
2018-12-11T20:30:47.124Z,9.60
2018-12-11T20:33:18.775Z,11.70
2018-12-11T20:35:50.914Z,10.83
2018-12-11T20:38:22.127Z,9.37
2018-12-11T20:40:53.200Z,9.90
2018-12-11T20:43:24.204Z,10.40
2018-12-11T20:45:55.362Z,10.10
2018-12-11T20:48:30.057Z,8.13
2018-12-11T20:51:01.895Z,7.97
2018-12-11T20:53:35.488Z,9.07
2018-12-11T20:56:06.951Z,9.10
2018-12-11T20:58:37.852Z,9.57
2018-12-11T21:01:09.025Z,8.77
2018-12-11T21:03:40.213Z,8.93
2018-12-11T21:09:19.785Z,9.47
2018-12-11T21:11:50.820Z,9.53
2018-12-11T21:14:22.118Z,9.67
2018-12-11T21:16:52.972Z,9.37
2018-12-11T21:19:23.799Z,9.37
2018-12-11T21:21:54.814Z,10.20
2018-12-11T21:24:26.180Z,9.80
2018-12-11T21:26:57.816Z,7.93
2018-12-11T21:29:32.404Z,8.47
2018-12-11T21:32:03.919Z,9.10
2018-12-11T21:34:35.461Z,9.10
2018-12-11T21:37:06.321Z,8.63
2018-12-11T21:39:37.417Z,9.43
2018-12-11T21:42:08.228Z,8.27
2018-12-11T21:44:39.199Z,8.03
2018-12-11T21:47:12.892Z,9.70
2018-12-11T21:49:46.795Z,8.27
2018-12-11T21:52:18.116Z,9.17
2018-12-11T21:54:49.115Z,8.53
2018-12-11T21:57:20.349Z,9.00
2018-12-11T21:59:54.173Z,7.83
2018-12-11T22:02:25.639Z,6.93
2018-12-11T22:04:57.332Z,9.33
2018-12-11T22:07:28.395Z,8.67
2018-12-11T22:10:00.075Z,8.83
2018-12-11T22:12:31.327Z,8.27
2018-12-11T22:15:02.627Z,7.63
2018-12-11T22:17:32.372Z,8.07
2018-12-11T22:20:04.543Z,7.60
2018-12-11T22:22:36.307Z,8.57
2018-12-11T22:25:07.478Z,8.13
2018-12-11T22:27:38.664Z,7.87
2018-12-11T22:30:10.587Z,7.70
2018-12-11T22:32:44.102Z,9.20
2018-12-11T22:35:15.442Z,7.97
2018-12-11T22:37:49.299Z,8.70
2018-12-11T22:40:20.679Z,8.27
2018-12-11T22:42:51.703Z,8.53
2018-12-11T22:45:22.943Z,7.53
2018-12-11T22:47:56.480Z,8.53
2018-12-11T22:50:28.121Z,8.13
2018-12-11T22:52:59.307Z,6.97
2018-12-11T22:55:30.764Z,8.03
2018-12-11T22:58:01.928Z,8.33
2018-12-11T23:00:36.634Z,8.17
2018-12-11T23:03:07.892Z,6.90
2018-12-11T23:05:38.982Z,7.17
2018-12-11T23:08:12.430Z,7.97
2018-12-11T23:10:43.757Z,8.00
2018-12-11T23:13:14.723Z,7.03
2018-12-11T23:15:45.725Z,7.37
2018-12-11T23:18:16.707Z,6.57
2018-12-11T23:20:47.930Z,7.47
2018-12-11T23:26:22.728Z,8.17
2018-12-11T23:28:53.899Z,8.07
2018-12-11T23:31:29.399Z,7.77
2018-12-11T23:34:01.139Z,7.30
2018-12-11T23:36:32.759Z,7.40
2018-12-11T23:39:08.442Z,7.10
2018-12-11T23:41:39.536Z,5.97
2018-12-11T23:44:10.708Z,7.30
2018-12-11T23:46:41.959Z,6.80
2018-12-11T23:49:15.280Z,7.03
2018-12-11T23:51:49.187Z,7.57
2018-12-11T23:54:20.591Z,6.70
2018-12-11T23:56:51.528Z,6.70
2018-12-11T23:59:28.956Z,7.63
